Time,TemperatureF,DewpointF,PressureIn,WindDirection,WindDirectionDegrees,WindSpeedMPH,WindSpeedGustMPH,Humidity,HourlyPrecipIn,Conditions,Clouds,dailyrainin,SoftwareType,DateUTC
2013-10-22 00:12:00,41.0,34.0,30.15,NNE,21,1.0,0.0,76,0.00,,,0.00,,2013-10-22 06:12:00,
2013-10-22 00:22:00,41.0,34.0,30.15,NNE,21,1.0,0.0,77,0.00,,,0.00,,2013-10-22 06:22:00,
2013-10-22 00:42:00,41.0,35.0,30.14,NNE,21,0.0,0.0,78,0.00,,,0.00,,2013-10-22 06:42:00,
2013-10-22 00:53:00,41.0,34.0,30.14,NNE,21,0.0,0.0,77,0.00,,,0.00,,2013-10-22 06:53:00,
2013-10-22 01:12:00,40.0,34.0,30.14,NNE,21,1.0,0.0,80,0.00,,,0.00,,2013-10-22 07:12:00,
2013-10-22 01:22:00,40.0,34.0,30.15,NNE,21,0.0,0.0,80,0.00,,,0.00,,2013-10-22 07:22:00,
2013-10-22 01:52:00,40.0,34.0,30.15,NNE,21,0.0,0.0,80,0.00,,,0.00,,2013-10-22 07:52:00,
2013-10-22 02:12:00,39.0,34.0,30.16,NNE,21,0.0,0.0,82,0.00,,,0.00,,2013-10-22 08:12:00,
2013-10-22 02:22:00,38.0,33.0,30.16,NNE,21,0.0,0.0,83,0.00,,,0.00,,2013-10-22 08:22:00,
2013-10-22 02:41:00,39.0,34.0,30.16,NNE,21,0.0,0.0,83,0.00,,,0.00,,2013-10-22 08:41:00,
2013-10-22 02:52:00,38.0,34.0,30.16,NNE,21,0.0,0.0,84,0.00,,,0.00,,2013-10-22 08:52:00,
2013-10-22 03:21:00,38.0,34.0,30.16,NNE,21,3.0,0.0,84,0.00,,,0.00,,2013-10-22 09:21:00,
2013-10-22 03:53:00,37.0,33.0,30.16,NNE,21,0.0,0.0,85,0.00,,,0.00,,2013-10-22 09:53:00,
2013-10-22 04:23:00,36.0,33.0,30.16,NNE,21,0.0,0.0,88,0.00,,,0.00,,2013-10-22 10:23:00,
2013-10-22 04:43:00,35.0,32.0,30.14,NNE,21,0.0,0.0,87,0.00,,,0.00,,2013-10-22 10:43:00,
2013-10-22 04:53:00,36.0,33.0,30.14,NNE,21,0.0,0.0,88,0.00,,,0.00,,2013-10-22 10:53:00,
2013-10-22 05:22:00,36.0,33.0,30.15,NNE,21,1.0,0.0,88,0.00,,,0.00,,2013-10-22 11:22:00,
2013-10-22 05:52:00,37.0,33.0,30.15,NNE,21,0.0,0.0,85,0.00,,,0.00,,2013-10-22 11:52:00,
2013-10-22 06:21:00,35.0,31.0,30.16,NNE,21,0.0,0.0,86,0.00,,,0.00,,2013-10-22 12:21:00,
2013-10-22 06:42:00,35.0,32.0,30.16,NNE,21,0.0,0.0,88,0.00,,,0.00,,2013-10-22 12:42:00,
2013-10-22 06:52:00,35.0,32.0,30.16,NNE,21,1.0,0.0,88,0.00,,,0.00,,2013-10-22 12:52:00,
2013-10-22 07:21:00,37.0,32.0,30.15,NNE,21,0.0,0.0,83,0.00,,,0.00,,2013-10-22 13:21:00,
2013-10-22 07:42:00,36.0,32.0,30.16,NNE,21,2.0,0.0,84,0.00,,,0.00,,2013-10-22 13:42:00,
2013-10-22 07:53:00,37.0,33.0,30.16,NNE,21,0.0,0.0,84,0.00,,,0.00,,2013-10-22 13:53:00,
2013-10-22 08:21:00,40.0,34.0,30.16,NNE,21,2.0,0.0,78,0.00,,,0.00,,2013-10-22 14:21:00,
2013-10-22 08:42:00,38.0,32.0,30.16,NNE,21,0.0,0.0,79,0.00,,,0.00,,2013-10-22 14:42:00,
2013-10-22 08:52:00,37.0,33.0,30.15,NNE,21,2.0,0.0,84,0.00,,,0.00,,2013-10-22 14:52:00,
2013-10-22 09:22:00,38.0,33.0,30.16,NNE,21,0.0,0.0,82,0.00,,,0.00,,2013-10-22 15:22:00,
2013-10-22 09:53:00,41.0,36.0,30.15,NNE,22,0.0,0.0,82,0.00,,,0.00,,2013-10-22 15:53:00,
2013-10-22 10:23:00,47.0,39.0,30.15,NNE,22,0.0,0.0,74,0.00,,,0.00,,2013-10-22 16:23:00,
2013-10-22 12:22:00,63.0,33.0,30.13,West,267,10.0,0.0,33,0.00,,,0.00,,2013-10-22 18:22:00,
2013-10-22 12:42:00,64.0,34.0,30.14,WNW,283,10.0,0.0,32,0.00,,,0.00,,2013-10-22 18:42:00,
2013-10-22 12:52:00,64.0,34.0,30.14,West,263,12.0,0.0,32,0.00,,,0.00,,2013-10-22 18:52:00,
2013-10-22 13:22:00,65.0,32.0,30.12,West,269,10.0,0.0,29,0.00,,,0.00,,2013-10-22 19:22:00,
2013-10-22 13:42:00,65.0,34.0,30.11,West,261,11.0,0.0,31,0.00,,,0.00,,2013-10-22 19:42:00,
2013-10-22 13:52:00,66.0,33.0,30.11,West,277,11.0,0.0,29,0.00,,,0.00,,2013-10-22 19:52:00,
2013-10-22 14:22:00,68.0,33.0,30.13,West,264,8.0,0.0,27,0.00,,,0.00,,2013-10-22 20:22:00,
2013-10-22 14:42:00,67.0,32.0,30.10,West,272,4.0,0.0,27,0.00,,,0.00,,2013-10-22 20:42:00,
2013-10-22 14:52:00,68.0,31.0,30.09,West,266,12.0,0.0,25,0.00,,,0.00,,2013-10-22 20:52:00,
2013-10-22 15:22:00,69.0,32.0,30.09,West,278,11.0,0.0,25,0.00,,,0.00,,2013-10-22 21:22:00,
2013-10-22 15:44:00,69.0,32.0,30.10,West,277,11.0,0.0,25,0.00,,,0.00,,2013-10-22 21:44:00,
2013-10-22 15:54:00,69.0,30.0,30.10,WNW,298,10.0,0.0,23,0.00,,,0.00,,2013-10-22 21:54:00,
2013-10-22 16:23:00,69.0,29.0,30.10,North,10,6.0,0.0,22,0.00,,,0.00,,2013-10-22 22:23:00,
2013-10-22 16:43:00,69.0,27.0,30.10,WNW,288,4.0,0.0,21,0.00,,,0.00,,2013-10-22 22:43:00,
2013-10-22 16:53:00,68.0,27.0,30.10,North,355,3.0,0.0,21,0.00,,,0.00,,2013-10-22 22:53:00,
2013-10-22 17:23:00,66.0,27.0,30.12,North,355,7.0,0.0,23,0.00,,,0.00,,2013-10-22 23:23:00,
2013-10-22 17:53:00,64.0,27.0,30.12,NNE,28,2.0,0.0,25,0.00,,,0.00,,2013-10-22 23:53:00,
2013-10-22 18:11:00,63.0,28.0,30.12,NNE,16,3.0,0.0,26,0.00,,,0.00,,2013-10-23 00:11:00,
2013-10-22 18:21:00,60.0,26.0,30.10,NNE,25,0.0,0.0,27,0.00,,,0.00,,2013-10-23 00:21:00,
2013-10-22 19:42:00,48.0,31.0,30.10,ENE,65,0.0,0.0,51,0.00,,,0.00,,2013-10-23 01:42:00,
2013-10-22 19:52:00,51.0,30.0,30.11,ENE,65,1.0,0.0,45,0.00,,,0.00,,2013-10-23 01:52:00,
2013-10-22 20:21:00,54.0,30.0,30.11,SE,144,4.0,0.0,40,0.00,,,0.00,,2013-10-23 02:21:00,
2013-10-22 20:42:00,49.0,31.0,30.11,North,5,0.0,0.0,49,0.00,,,0.00,,2013-10-23 02:42:00,
2013-10-22 20:53:00,46.0,30.0,30.11,North,5,0.0,0.0,54,0.00,,,0.00,,2013-10-23 02:53:00,
2013-10-22 21:22:00,46.0,31.0,30.12,North,5,3.0,0.0,55,0.00,,,0.00,,2013-10-23 03:22:00,
2013-10-22 21:55:00,44.0,31.0,30.14,North,5,1.0,0.0,60,0.00,,,0.00,,2013-10-23 03:55:00,
2013-10-22 22:14:00,42.0,30.0,30.15,North,5,2.0,0.0,63,0.00,,,0.00,,2013-10-23 04:14:00,
2013-10-22 22:24:00,42.0,31.0,30.15,North,5,0.0,0.0,64,0.00,,,0.00,,2013-10-23 04:24:00,
2013-10-22 22:44:00,43.0,31.0,30.16,North,5,3.0,0.0,62,0.00,,,0.00,,2013-10-23 04:44:00,
2013-10-22 22:54:00,42.0,31.0,30.16,North,5,0.0,0.0,64,0.00,,,0.00,,2013-10-23 04:54:00,
2013-10-22 23:22:00,42.0,31.0,30.17,North,5,3.0,0.0,64,0.00,,,0.00,,2013-10-23 05:22:00,
2013-10-22 23:52:00,40.0,30.0,30.17,North,5,0.0,0.0,67,0.00,,,0.00,,2013-10-23 05:52:00,